sensor_id;sensor_type;location;lat;lon;timestamp;temperature;humidity
65146;DHT22;51730;56.950;24.126;2023-03-15T00:02:20;7.50;99.90
65146;DHT22;51730;56.950;24.126;2023-03-15T00:04:47;7.50;99.90
65146;DHT22;51730;56.950;24.126;2023-03-15T00:07:14;7.50;99.90
65146;DHT22;51730;56.950;24.126;2023-03-15T00:09:41;7.50;99.90
65146;DHT22;51730;56.950;24.126;2023-03-15T00:12:08;7.40;99.90
65146;DHT22;51730;56.950;24.126;2023-03-15T00:14:35;7.50;99.90
65146;DHT22;51730;56.950;24.126;2023-03-15T00:17:02;7.50;99.90
65146;DHT22;51730;56.950;24.126;2023-03-15T00:19:29;7.50;99.90
65146;DHT22;51730;56.950;24.126;2023-03-15T00:21:55;7.50;99.90
65146;DHT22;51730;56.950;24.126;2023-03-15T00:24:22;7.50;99.90
65146;DHT22;51730;56.950;24.126;2023-03-15T00:26:50;7.50;99.90
65146;DHT22;51730;56.950;24.126;2023-03-15T00:29:17;7.50;99.90
65146;DHT22;51730;56.950;24.126;2023-03-15T00:31:44;7.50;99.90
65146;DHT22;51730;56.950;24.126;2023-03-15T00:34:10;7.50;99.90
65146;DHT22;51730;56.950;24.126;2023-03-15T00:36:39;7.50;99.90
65146;DHT22;51730;56.950;24.126;2023-03-15T00:39:09;7.50;99.90
65146;DHT22;51730;56.950;24.126;2023-03-15T00:41:36;7.50;99.90
65146;DHT22;51730;56.950;24.126;2023-03-15T00:44:02;7.50;99.90
65146;DHT22;51730;56.950;24.126;2023-03-15T00:46:32;7.50;99.90
65146;DHT22;51730;56.950;24.126;2023-03-15T00:48:59;7.50;99.90
65146;DHT22;51730;56.950;24.126;2023-03-15T00:51:26;7.50;99.90
65146;DHT22;51730;56.950;24.126;2023-03-15T00:53:53;7.50;99.90
65146;DHT22;51730;56.950;24.126;2023-03-15T00:56:21;7.50;99.90
65146;DHT22;51730;56.950;24.126;2023-03-15T00:58:48;7.50;99.90
65146;DHT22;51730;56.950;24.126;2023-03-15T01:01:17;7.50;99.90
65146;DHT22;51730;56.950;24.126;2023-03-15T01:03:44;7.50;99.90
65146;DHT22;51730;56.950;24.126;2023-03-15T01:06:15;7.50;99.90
65146;DHT22;51730;56.950;24.126;2023-03-15T01:08:42;7.50;99.90
65146;DHT22;51730;56.950;24.126;2023-03-15T01:11:10;7.50;99.90
65146;DHT22;51730;56.950;24.126;2023-03-15T01:13:37;7.50;99.90
65146;DHT22;51730;56.950;24.126;2023-03-15T01:16:04;7.50;99.90
65146;DHT22;51730;56.950;24.126;2023-03-15T01:18:31;7.50;99.90
65146;DHT22;51730;56.950;24.126;2023-03-15T01:20:58;7.50;99.90
65146;DHT22;51730;56.950;24.126;2023-03-15T01:23:25;7.50;99.90
65146;DHT22;51730;56.950;24.126;2023-03-15T01:25:52;7.50;99.90
65146;DHT22;51730;56.950;24.126;2023-03-15T01:28:19;7.50;99.90
65146;DHT22;51730;56.950;24.126;2023-03-15T01:30:52;7.50;99.90
65146;DHT22;51730;56.950;24.126;2023-03-15T01:33:19;7.50;99.90
65146;DHT22;51730;56.950;24.126;2023-03-15T01:35:46;7.60;99.90
65146;DHT22;51730;56.950;24.126;2023-03-15T01:38:13;7.50;99.90
65146;DHT22;51730;56.950;24.126;2023-03-15T01:40:40;7.50;99.90
65146;DHT22;51730;56.950;24.126;2023-03-15T01:48:16;7.60;99.90
65146;DHT22;51730;56.950;24.126;2023-03-15T01:50:44;7.60;99.90
65146;DHT22;51730;56.950;24.126;2023-03-15T01:53:11;7.60;99.90
65146;DHT22;51730;56.950;24.126;2023-03-15T01:55:38;7.60;99.90
65146;DHT22;51730;56.950;24.126;2023-03-15T01:58:06;7.50;99.90
65146;DHT22;51730;56.950;24.126;2023-03-15T02:00:33;7.60;99.90
65146;DHT22;51730;56.950;24.126;2023-03-15T02:03:05;7.50;99.90
65146;DHT22;51730;56.950;24.126;2023-03-15T02:05:35;7.50;99.90
65146;DHT22;51730;56.950;24.126;2023-03-15T02:08:03;7.50;99.90
65146;DHT22;51730;56.950;24.126;2023-03-15T02:11:05;7.50;99.90
65146;DHT22;51730;56.950;24.126;2023-03-15T02:13:25;7.40;99.90
65146;DHT22;51730;56.950;24.126;2023-03-15T02:15:52;7.20;99.90
65146;DHT22;51730;56.950;24.126;2023-03-15T02:18:19;7.10;99.90
65146;DHT22;51730;56.950;24.126;2023-03-15T02:20:57;7.10;99.90
65146;DHT22;51730;56.950;24.126;2023-03-15T02:23:27;7.10;99.90
65146;DHT22;51730;56.950;24.126;2023-03-15T02:28:21;6.90;99.90
65146;DHT22;51730;56.950;24.126;2023-03-15T02:30:48;6.80;99.90
65146;DHT22;51730;56.950;24.126;2023-03-15T02:35:41;6.70;99.90
65146;DHT22;51730;56.950;24.126;2023-03-15T02:38:08;6.60;99.90
65146;DHT22;51730;56.950;24.126;2023-03-15T02:40:35;6.50;99.90
65146;DHT22;51730;56.950;24.126;2023-03-15T02:43:04;6.50;99.90
65146;DHT22;51730;56.950;24.126;2023-03-15T02:45:32;6.30;99.90
65146;DHT22;51730;56.950;24.126;2023-03-15T02:48:00;6.20;99.90
65146;DHT22;51730;56.950;24.126;2023-03-15T02:50:29;6.10;99.90
65146;DHT22;51730;56.950;24.126;2023-03-15T02:52:55;6.10;99.90
65146;DHT22;51730;56.950;24.126;2023-03-15T02:55:22;6.10;99.90
65146;DHT22;51730;56.950;24.126;2023-03-15T02:57:49;6.00;99.90
65146;DHT22;51730;56.950;24.126;2023-03-15T03:00:16;6.00;99.90
65146;DHT22;51730;56.950;24.126;2023-03-15T03:02:44;5.90;99.90
65146;DHT22;51730;56.950;24.126;2023-03-15T03:05:12;5.90;99.90
65146;DHT22;51730;56.950;24.126;2023-03-15T03:07:39;5.70;99.90
65146;DHT22;51730;56.950;24.126;2023-03-15T03:10:09;5.70;99.90
65146;DHT22;51730;56.950;24.126;2023-03-15T03:12:36;5.80;99.90
65146;DHT22;51730;56.950;24.126;2023-03-15T03:15:03;5.80;99.90
65146;DHT22;51730;56.950;24.126;2023-03-15T03:17:30;5.80;99.90
65146;DHT22;51730;56.950;24.126;2023-03-15T03:19:57;5.80;99.90
65146;DHT22;51730;56.950;24.126;2023-03-15T03:22:23;5.80;99.90
65146;DHT22;51730;56.950;24.126;2023-03-15T03:24:50;5.80;99.90
65146;DHT22;51730;56.950;24.126;2023-03-15T03:27:17;5.70;99.90
65146;DHT22;51730;56.950;24.126;2023-03-15T03:29:44;5.70;99.90
65146;DHT22;51730;56.950;24.126;2023-03-15T03:32:11;5.70;99.90
65146;DHT22;51730;56.950;24.126;2023-03-15T03:34:38;5.80;99.90
65146;DHT22;51730;56.950;24.126;2023-03-15T03:37:05;5.70;99.90
65146;DHT22;51730;56.950;24.126;2023-03-15T03:39:32;5.70;99.90
65146;DHT22;51730;56.950;24.126;2023-03-15T03:41:58;5.60;99.90
65146;DHT22;51730;56.950;24.126;2023-03-15T03:44:25;5.70;99.90
65146;DHT22;51730;56.950;24.126;2023-03-15T03:46:52;5.70;99.90
65146;DHT22;51730;56.950;24.126;2023-03-15T03:49:19;5.80;99.90
65146;DHT22;51730;56.950;24.126;2023-03-15T03:51:46;5.70;99.90
65146;DHT22;51730;56.950;24.126;2023-03-15T03:54:13;5.70;99.90
65146;DHT22;51730;56.950;24.126;2023-03-15T03:56:42;5.70;99.90
65146;DHT22;51730;56.950;24.126;2023-03-15T03:59:09;5.60;99.90
65146;DHT22;51730;56.950;24.126;2023-03-15T04:01:36;5.60;99.90
65146;DHT22;51730;56.950;24.126;2023-03-15T04:04:03;5.60;99.90
65146;DHT22;51730;56.950;24.126;2023-03-15T04:06:33;5.60;99.90
65146;DHT22;51730;56.950;24.126;2023-03-15T04:09:00;5.60;99.90
65146;DHT22;51730;56.950;24.126;2023-03-15T04:11:29;5.70;99.90
65146;DHT22;51730;56.950;24.126;2023-03-15T04:13:56;5.60;99.90
65146;DHT22;51730;56.950;24.126;2023-03-15T04:16:23;5.60;99.90
65146;DHT22;51730;56.950;24.126;2023-03-15T04:18:50;5.60;99.90
65146;DHT22;51730;56.950;24.126;2023-03-15T04:21:17;5.60;99.90
65146;DHT22;51730;56.950;24.126;2023-03-15T04:23:48;5.50;99.90
65146;DHT22;51730;56.950;24.126;2023-03-15T04:26:15;5.60;99.90
65146;DHT22;51730;56.950;24.126;2023-03-15T04:28:42;5.40;99.90
65146;DHT22;51730;56.950;24.126;2023-03-15T04:31:09;5.30;99.90
65146;DHT22;51730;56.950;24.126;2023-03-15T04:33:40;5.30;99.90
65146;DHT22;51730;56.950;24.126;2023-03-15T04:36:07;5.30;99.90
65146;DHT22;51730;56.950;24.126;2023-03-15T04:38:34;5.40;99.90
65146;DHT22;51730;56.950;24.126;2023-03-15T04:41:01;5.40;99.90
65146;DHT22;51730;56.950;24.126;2023-03-15T04:43:36;5.40;99.90
65146;DHT22;51730;56.950;24.126;2023-03-15T04:46:03;5.50;99.90
65146;DHT22;51730;56.950;24.126;2023-03-15T04:48:30;5.40;99.90
65146;DHT22;51730;56.950;24.126;2023-03-15T04:50:56;5.40;99.90
65146;DHT22;51730;56.950;24.126;2023-03-15T04:53:23;5.50;99.90
65146;DHT22;51730;56.950;24.126;2023-03-15T04:55:50;5.50;99.90
65146;DHT22;51730;56.950;24.126;2023-03-15T04:58:17;5.40;99.90
65146;DHT22;51730;56.950;24.126;2023-03-15T05:00:44;5.40;99.90
65146;DHT22;51730;56.950;24.126;2023-03-15T05:03:11;5.40;99.90
65146;DHT22;51730;56.950;24.126;2023-03-15T05:05:38;5.40;99.90
65146;DHT22;51730;56.950;24.126;2023-03-15T05:08:05;5.40;99.90
65146;DHT22;51730;56.950;24.126;2023-03-15T05:10:31;5.30;99.90
65146;DHT22;51730;56.950;24.126;2023-03-15T05:12:58;5.30;99.90
65146;DHT22;51730;56.950;24.126;2023-03-15T05:15:25;5.20;99.90
65146;DHT22;51730;56.950;24.126;2023-03-15T05:17:52;5.30;99.90
65146;DHT22;51730;56.950;24.126;2023-03-15T05:20:21;5.40;99.90
65146;DHT22;51730;56.950;24.126;2023-03-15T05:22:48;5.40;99.90
65146;DHT22;51730;56.950;24.126;2023-03-15T05:25:15;5.50;99.90
65146;DHT22;51730;56.950;24.126;2023-03-15T05:27:41;5.40;99.90
65146;DHT22;51730;56.950;24.126;2023-03-15T05:30:12;5.30;99.90
65146;DHT22;51730;56.950;24.126;2023-03-15T05:32:41;5.30;99.90
65146;DHT22;51730;56.950;24.126;2023-03-15T05:35:10;5.30;99.90
65146;DHT22;51730;56.950;24.126;2023-03-15T05:37:38;5.20;99.90
65146;DHT22;51730;56.950;24.126;2023-03-15T05:40:05;5.10;99.90
65146;DHT22;51730;56.950;24.126;2023-03-15T05:42:33;5.00;99.90
65146;DHT22;51730;56.950;24.126;2023-03-15T05:45:00;5.10;99.90
65146;DHT22;51730;56.950;24.126;2023-03-15T05:47:27;5.20;99.90
65146;DHT22;51730;56.950;24.126;2023-03-15T05:49:54;5.00;99.90
65146;DHT22;51730;56.950;24.126;2023-03-15T05:52:21;5.00;99.90
65146;DHT22;51730;56.950;24.126;2023-03-15T05:54:48;5.10;99.90
65146;DHT22;51730;56.950;24.126;2023-03-15T05:57:15;5.10;99.90
65146;DHT22;51730;56.950;24.126;2023-03-15T05:59:41;4.90;99.90
65146;DHT22;51730;56.950;24.126;2023-03-15T06:02:08;5.00;99.90
65146;DHT22;51730;56.950;24.126;2023-03-15T06:04:35;5.00;99.90
65146;DHT22;51730;56.950;24.126;2023-03-15T06:07:03;5.10;99.90
65146;DHT22;51730;56.950;24.126;2023-03-15T06:09:30;5.20;99.90
65146;DHT22;51730;56.950;24.126;2023-03-15T06:11:57;5.30;99.90
65146;DHT22;51730;56.950;24.126;2023-03-15T06:14:25;5.20;99.90
65146;DHT22;51730;56.950;24.126;2023-03-15T06:16:52;5.20;99.90
65146;DHT22;51730;56.950;24.126;2023-03-15T06:19:20;4.90;99.90
65146;DHT22;51730;56.950;24.126;2023-03-15T06:21:47;5.10;99.90
65146;DHT22;51730;56.950;24.126;2023-03-15T06:24:14;4.90;99.90
65146;DHT22;51730;56.950;24.126;2023-03-15T06:26:41;4.90;99.90
65146;DHT22;51730;56.950;24.126;2023-03-15T06:29:08;4.90;99.90
65146;DHT22;51730;56.950;24.126;2023-03-15T06:31:34;5.00;99.90
65146;DHT22;51730;56.950;24.126;2023-03-15T06:34:01;5.00;99.90
65146;DHT22;51730;56.950;24.126;2023-03-15T06:36:28;5.00;99.90
65146;DHT22;51730;56.950;24.126;2023-03-15T06:38:56;5.10;99.90
65146;DHT22;51730;56.950;24.126;2023-03-15T06:41:23;4.90;99.90
65146;DHT22;51730;56.950;24.126;2023-03-15T06:43:49;4.90;99.90
65146;DHT22;51730;56.950;24.126;2023-03-15T06:46:16;4.90;99.90
65146;DHT22;51730;56.950;24.126;2023-03-15T06:48:43;5.00;99.90
65146;DHT22;51730;56.950;24.126;2023-03-15T06:51:10;5.00;99.90
65146;DHT22;51730;56.950;24.126;2023-03-15T06:53:36;5.10;99.90
65146;DHT22;51730;56.950;24.126;2023-03-15T06:56:03;5.30;99.90
65146;DHT22;51730;56.950;24.126;2023-03-15T06:58:30;5.30;99.90
65146;DHT22;51730;56.950;24.126;2023-03-15T07:00:57;5.30;99.90
65146;DHT22;51730;56.950;24.126;2023-03-15T07:03:24;5.40;99.90
65146;DHT22;51730;56.950;24.126;2023-03-15T07:05:50;5.60;99.90
65146;DHT22;51730;56.950;24.126;2023-03-15T07:08:20;5.50;99.90
65146;DHT22;51730;56.950;24.126;2023-03-15T07:10:47;5.70;99.90
65146;DHT22;51730;56.950;24.126;2023-03-15T07:13:14;5.30;99.90
65146;DHT22;51730;56.950;24.126;2023-03-15T07:15:41;5.10;99.90
65146;DHT22;51730;56.950;24.126;2023-03-15T07:18:07;5.30;99.90
65146;DHT22;51730;56.950;24.126;2023-03-15T07:20:34;5.40;99.90
65146;DHT22;51730;56.950;24.126;2023-03-15T07:23:03;5.10;99.90
65146;DHT22;51730;56.950;24.126;2023-03-15T07:25:30;4.90;99.90
65146;DHT22;51730;56.950;24.126;2023-03-15T07:27:56;5.10;99.90
65146;DHT22;51730;56.950;24.126;2023-03-15T07:30:23;5.30;99.90
65146;DHT22;51730;56.950;24.126;2023-03-15T07:32:50;5.20;99.90
65146;DHT22;51730;56.950;24.126;2023-03-15T07:35:17;5.60;99.90
65146;DHT22;51730;56.950;24.126;2023-03-15T07:37:45;5.50;99.90
65146;DHT22;51730;56.950;24.126;2023-03-15T07:40:12;5.50;99.90
65146;DHT22;51730;56.950;24.126;2023-03-15T07:42:39;5.60;99.90
65146;DHT22;51730;56.950;24.126;2023-03-15T07:45:06;5.70;99.90
65146;DHT22;51730;56.950;24.126;2023-03-15T07:47:33;5.80;99.90
65146;DHT22;51730;56.950;24.126;2023-03-15T07:50:00;5.80;99.90
65146;DHT22;51730;56.950;24.126;2023-03-15T07:52:27;5.70;99.90
65146;DHT22;51730;56.950;24.126;2023-03-15T07:54:54;5.80;99.90
65146;DHT22;51730;56.950;24.126;2023-03-15T07:57:21;5.50;99.90
65146;DHT22;51730;56.950;24.126;2023-03-15T07:59:47;5.50;99.90
65146;DHT22;51730;56.950;24.126;2023-03-15T08:02:14;5.70;99.90
65146;DHT22;51730;56.950;24.126;2023-03-15T08:04:41;5.70;99.90
65146;DHT22;51730;56.950;24.126;2023-03-15T08:07:08;5.40;99.90
65146;DHT22;51730;56.950;24.126;2023-03-15T08:09:35;5.50;99.90
65146;DHT22;51730;56.950;24.126;2023-03-15T08:12:02;5.50;99.90
65146;DHT22;51730;56.950;24.126;2023-03-15T08:14:28;5.40;99.90
65146;DHT22;51730;56.950;24.126;2023-03-15T08:16:57;5.60;99.90
65146;DHT22;51730;56.950;24.126;2023-03-15T08:19:23;5.70;99.90
65146;DHT22;51730;56.950;24.126;2023-03-15T08:21:50;5.70;99.90
65146;DHT22;51730;56.950;24.126;2023-03-15T08:24:21;5.70;99.90
65146;DHT22;51730;56.950;24.126;2023-03-15T08:26:48;5.70;99.90
65146;DHT22;51730;56.950;24.126;2023-03-15T08:29:15;5.90;99.90
65146;DHT22;51730;56.950;24.126;2023-03-15T08:31:42;5.90;99.90
65146;DHT22;51730;56.950;24.126;2023-03-15T08:34:08;6.00;99.90
65146;DHT22;51730;56.950;24.126;2023-03-15T08:36:35;5.90;99.90
65146;DHT22;51730;56.950;24.126;2023-03-15T08:39:02;5.70;99.90
65146;DHT22;51730;56.950;24.126;2023-03-15T08:41:31;5.90;99.90
65146;DHT22;51730;56.950;24.126;2023-03-15T08:43:58;5.80;99.90
65146;DHT22;51730;56.950;24.126;2023-03-15T08:46:25;5.80;99.90
65146;DHT22;51730;56.950;24.126;2023-03-15T08:48:52;5.80;99.90
65146;DHT22;51730;56.950;24.126;2023-03-15T08:51:19;5.80;99.90
65146;DHT22;51730;56.950;24.126;2023-03-15T08:53:47;5.40;99.90
65146;DHT22;51730;56.950;24.126;2023-03-15T08:56:14;5.50;99.90
65146;DHT22;51730;56.950;24.126;2023-03-15T08:58:40;5.70;99.90
65146;DHT22;51730;56.950;24.126;2023-03-15T09:01:09;5.60;99.90
65146;DHT22;51730;56.950;24.126;2023-03-15T09:03:36;5.70;99.90
65146;DHT22;51730;56.950;24.126;2023-03-15T09:06:04;5.90;99.90
65146;DHT22;51730;56.950;24.126;2023-03-15T09:08:31;5.80;99.90
65146;DHT22;51730;56.950;24.126;2023-03-15T09:10:58;5.90;99.90
65146;DHT22;51730;56.950;24.126;2023-03-15T09:13:27;6.10;99.90
65146;DHT22;51730;56.950;24.126;2023-03-15T09:15:54;6.20;99.90
65146;DHT22;51730;56.950;24.126;2023-03-15T09:18:21;6.20;99.90
65146;DHT22;51730;56.950;24.126;2023-03-15T09:20:48;6.20;99.90
65146;DHT22;51730;56.950;24.126;2023-03-15T09:23:15;6.20;99.90
65146;DHT22;51730;56.950;24.126;2023-03-15T09:25:42;6.10;99.90
65146;DHT22;51730;56.950;24.126;2023-03-15T09:28:09;6.20;99.90
65146;DHT22;51730;56.950;24.126;2023-03-15T09:30:37;6.10;99.90
65146;DHT22;51730;56.950;24.126;2023-03-15T09:33:04;5.70;99.90
65146;DHT22;51730;56.950;24.126;2023-03-15T09:35:31;5.60;99.90
65146;DHT22;51730;56.950;24.126;2023-03-15T09:37:58;5.80;99.90
65146;DHT22;51730;56.950;24.126;2023-03-15T09:40:39;5.70;99.90
65146;DHT22;51730;56.950;24.126;2023-03-15T09:50:47;5.50;99.90
65146;DHT22;51730;56.950;24.126;2023-03-15T09:53:20;5.60;99.90
65146;DHT22;51730;56.950;24.126;2023-03-15T09:55:50;5.70;99.90
65146;DHT22;51730;56.950;24.126;2023-03-15T09:58:18;5.80;99.90
65146;DHT22;51730;56.950;24.126;2023-03-15T10:00:48;5.90;99.90
65146;DHT22;51730;56.950;24.126;2023-03-15T10:04:02;6.00;99.90
65146;DHT22;51730;56.950;24.126;2023-03-15T10:06:15;6.00;99.90
65146;DHT22;51730;56.950;24.126;2023-03-15T10:08:42;6.30;99.90
65146;DHT22;51730;56.950;24.126;2023-03-15T10:11:55;6.40;99.90
65146;DHT22;51730;56.950;24.126;2023-03-15T10:22:02;5.90;99.90
65146;DHT22;51730;56.950;24.126;2023-03-15T10:24:43;6.10;99.90
65146;DHT22;51730;56.950;24.126;2023-03-15T10:29:42;6.30;99.90
65146;DHT22;51730;56.950;24.126;2023-03-15T10:32:14;6.30;99.90
65146;DHT22;51730;56.950;24.126;2023-03-15T10:34:53;6.40;99.30
65146;DHT22;51730;56.950;24.126;2023-03-15T10:37:22;6.40;98.80
65146;DHT22;51730;56.950;24.126;2023-03-15T10:39:50;6.40;98.70
65146;DHT22;51730;56.950;24.126;2023-03-15T10:42:25;6.40;99.90
65146;DHT22;51730;56.950;24.126;2023-03-15T10:44:52;6.60;99.90
65146;DHT22;51730;56.950;24.126;2023-03-15T10:47:20;6.70;98.10
65146;DHT22;51730;56.950;24.126;2023-03-15T10:49:59;6.60;97.20
65146;DHT22;51730;56.950;24.126;2023-03-15T10:52:33;6.60;96.10
65146;DHT22;51730;56.950;24.126;2023-03-15T10:55:46;6.40;96.30
65146;DHT22;51730;56.950;24.126;2023-03-15T10:57:52;6.50;95.20
65146;DHT22;51730;56.950;24.126;2023-03-15T11:00:24;6.50;95.80
65146;DHT22;51730;56.950;24.126;2023-03-15T11:05:41;6.40;91.50
65146;DHT22;51730;56.950;24.126;2023-03-15T11:08:15;6.80;90.80
65146;DHT22;51730;56.950;24.126;2023-03-15T11:10:43;7.00;88.30
65146;DHT22;51730;56.950;24.126;2023-03-15T11:15:37;6.80;82.70
65146;DHT22;51730;56.950;24.126;2023-03-15T11:18:05;6.70;83.00
65146;DHT22;51730;56.950;24.126;2023-03-15T11:20:35;6.80;81.30
65146;DHT22;51730;56.950;24.126;2023-03-15T11:23:19;6.80;78.50
65146;DHT22;51730;56.950;24.126;2023-03-15T11:25:47;6.50;77.60
65146;DHT22;51730;56.950;24.126;2023-03-15T11:28:16;6.60;76.80
65146;DHT22;51730;56.950;24.126;2023-03-15T11:30:43;6.70;78.50
65146;DHT22;51730;56.950;24.126;2023-03-15T11:35:52;6.80;78.30
65146;DHT22;51730;56.950;24.126;2023-03-15T11:38:33;7.10;76.60
65146;DHT22;51730;56.950;24.126;2023-03-15T11:41:08;7.10;73.60
65146;DHT22;51730;56.950;24.126;2023-03-15T11:48:56;7.40;72.50
65146;DHT22;51730;56.950;24.126;2023-03-15T11:51:25;7.30;72.10
65146;DHT22;51730;56.950;24.126;2023-03-15T11:54:04;7.20;71.80
65146;DHT22;51730;56.950;24.126;2023-03-15T11:56:44;7.20;72.60
65146;DHT22;51730;56.950;24.126;2023-03-15T11:59:19;7.30;72.10
65146;DHT22;51730;56.950;24.126;2023-03-15T12:01:49;7.40;72.00
65146;DHT22;51730;56.950;24.126;2023-03-15T12:06:50;7.20;73.90
65146;DHT22;51730;56.950;24.126;2023-03-15T12:11:59;7.40;73.70
65146;DHT22;51730;56.950;24.126;2023-03-15T12:19:41;7.60;70.80
65146;DHT22;51730;56.950;24.126;2023-03-15T12:22:13;7.70;68.80
65146;DHT22;51730;56.950;24.126;2023-03-15T12:24:41;7.90;67.20
65146;DHT22;51730;56.950;24.126;2023-03-15T12:27:13;8.00;66.00
65146;DHT22;51730;56.950;24.126;2023-03-15T12:29:40;8.10;65.40
65146;DHT22;51730;56.950;24.126;2023-03-15T12:32:15;8.10;64.70
65146;DHT22;51730;56.950;24.126;2023-03-15T12:34:52;7.90;65.00
65146;DHT22;51730;56.950;24.126;2023-03-15T12:37:40;7.60;66.00
65146;DHT22;51730;56.950;24.126;2023-03-15T12:50:36;7.60;69.60
65146;DHT22;51730;56.950;24.126;2023-03-15T12:53:15;7.60;71.30
65146;DHT22;51730;56.950;24.126;2023-03-15T12:55:42;7.60;68.80
65146;DHT22;51730;56.950;24.126;2023-03-15T12:58:10;7.60;68.70
65146;DHT22;51730;56.950;24.126;2023-03-15T13:00:39;7.70;67.70
65146;DHT22;51730;56.950;24.126;2023-03-15T13:03:10;7.80;66.50
65146;DHT22;51730;56.950;24.126;2023-03-15T13:13:31;8.40;61.00
65146;DHT22;51730;56.950;24.126;2023-03-15T13:18:28;8.30;59.40
65146;DHT22;51730;56.950;24.126;2023-03-15T13:21:13;8.30;60.30
65146;DHT22;51730;56.950;24.126;2023-03-15T13:23:48;8.10;60.10
65146;DHT22;51730;56.950;24.126;2023-03-15T13:31:34;7.80;59.40
65146;DHT22;51730;56.950;24.126;2023-03-15T13:34:09;7.60;59.30
65146;DHT22;51730;56.950;24.126;2023-03-15T13:36:46;7.70;59.10
65146;DHT22;51730;56.950;24.126;2023-03-15T13:39:20;7.50;58.50
65146;DHT22;51730;56.950;24.126;2023-03-15T13:41:49;7.50;57.90
65146;DHT22;51730;56.950;24.126;2023-03-15T13:44:22;7.50;57.70
65146;DHT22;51730;56.950;24.126;2023-03-15T13:46:50;7.60;58.00
65146;DHT22;51730;56.950;24.126;2023-03-15T13:49:17;7.70;57.70
65146;DHT22;51730;56.950;24.126;2023-03-15T13:51:45;7.70;58.50
65146;DHT22;51730;56.950;24.126;2023-03-15T13:54:15;7.70;59.20
65146;DHT22;51730;56.950;24.126;2023-03-15T13:56:45;7.70;59.30
65146;DHT22;51730;56.950;24.126;2023-03-15T13:59:15;7.80;58.40
65146;DHT22;51730;56.950;24.126;2023-03-15T14:01:42;7.80;58.10
65146;DHT22;51730;56.950;24.126;2023-03-15T14:04:16;7.80;58.60
65146;DHT22;51730;56.950;24.126;2023-03-15T14:06:44;7.90;58.70
65146;DHT22;51730;56.950;24.126;2023-03-15T14:11:43;7.90;54.90
65146;DHT22;51730;56.950;24.126;2023-03-15T14:14:18;7.80;55.00
65146;DHT22;51730;56.950;24.126;2023-03-15T14:16:46;8.30;54.60
65146;DHT22;51730;56.950;24.126;2023-03-15T14:19:31;8.50;53.30
65146;DHT22;51730;56.950;24.126;2023-03-15T14:21:59;8.20;52.90
65146;DHT22;51730;56.950;24.126;2023-03-15T14:24:31;8.00;53.20
65146;DHT22;51730;56.950;24.126;2023-03-15T14:26:59;7.70;53.10
65146;DHT22;51730;56.950;24.126;2023-03-15T14:29:28;7.50;53.70
65146;DHT22;51730;56.950;24.126;2023-03-15T14:31:58;7.90;53.90
65146;DHT22;51730;56.950;24.126;2023-03-15T14:37:47;8.00;53.70
65146;DHT22;51730;56.950;24.126;2023-03-15T14:39:48;8.00;53.70
65146;DHT22;51730;56.950;24.126;2023-03-15T14:42:15;8.00;54.20
65146;DHT22;51730;56.950;24.126;2023-03-15T14:44:41;7.70;55.60
65146;DHT22;51730;56.950;24.126;2023-03-15T14:47:12;7.30;56.10
65146;DHT22;51730;56.950;24.126;2023-03-15T14:49:39;7.40;57.10
65146;DHT22;51730;56.950;24.126;2023-03-15T14:52:06;7.80;57.10
65146;DHT22;51730;56.950;24.126;2023-03-15T14:54:33;8.00;55.90
65146;DHT22;51730;56.950;24.126;2023-03-15T14:57:00;7.90;55.10
65146;DHT22;51730;56.950;24.126;2023-03-15T14:59:27;8.10;54.90
65146;DHT22;51730;56.950;24.126;2023-03-15T15:01:54;8.20;54.50
65146;DHT22;51730;56.950;24.126;2023-03-15T15:04:22;8.20;54.30
65146;DHT22;51730;56.950;24.126;2023-03-15T15:06:49;7.90;54.40
65146;DHT22;51730;56.950;24.126;2023-03-15T15:09:22;7.80;55.30
65146;DHT22;51730;56.950;24.126;2023-03-15T15:11:50;7.60;55.60
65146;DHT22;51730;56.950;24.126;2023-03-15T15:14:17;7.60;55.00
65146;DHT22;51730;56.950;24.126;2023-03-15T15:16:44;7.40;55.30
65146;DHT22;51730;56.950;24.126;2023-03-15T15:19:11;7.20;55.50
65146;DHT22;51730;56.950;24.126;2023-03-15T15:21:38;7.00;55.20
65146;DHT22;51730;56.950;24.126;2023-03-15T15:24:16;7.00;56.10
65146;DHT22;51730;56.950;24.126;2023-03-15T15:26:44;7.00;55.80
65146;DHT22;51730;56.950;24.126;2023-03-15T15:29:11;6.90;55.00
65146;DHT22;51730;56.950;24.126;2023-03-15T15:31:39;6.70;54.20
65146;DHT22;51730;56.950;24.126;2023-03-15T15:34:07;6.70;54.60
65146;DHT22;51730;56.950;24.126;2023-03-15T15:36:35;6.70;54.20
65146;DHT22;51730;56.950;24.126;2023-03-15T15:39:03;6.70;53.40
65146;DHT22;51730;56.950;24.126;2023-03-15T15:41:32;6.70;53.20
65146;DHT22;51730;56.950;24.126;2023-03-15T15:44:00;6.70;53.60
65146;DHT22;51730;56.950;24.126;2023-03-15T15:46:26;6.60;53.20
65146;DHT22;51730;56.950;24.126;2023-03-15T15:48:53;6.70;53.40
65146;DHT22;51730;56.950;24.126;2023-03-15T15:53:54;6.70;53.80
65146;DHT22;51730;56.950;24.126;2023-03-15T15:56:22;6.60;54.60
65146;DHT22;51730;56.950;24.126;2023-03-15T15:58:52;6.60;54.50
65146;DHT22;51730;56.950;24.126;2023-03-15T16:01:19;6.50;54.80
65146;DHT22;51730;56.950;24.126;2023-03-15T16:03:45;6.50;54.60
65146;DHT22;51730;56.950;24.126;2023-03-15T16:06:14;6.40;55.00
65146;DHT22;51730;56.950;24.126;2023-03-15T16:08:41;6.20;54.70
65146;DHT22;51730;56.950;24.126;2023-03-15T16:11:09;6.20;55.10
65146;DHT22;51730;56.950;24.126;2023-03-15T16:13:36;6.20;55.00
65146;DHT22;51730;56.950;24.126;2023-03-15T16:16:03;6.20;55.50
65146;DHT22;51730;56.950;24.126;2023-03-15T16:18:30;6.10;56.00
65146;DHT22;51730;56.950;24.126;2023-03-15T16:20:58;6.10;55.80
65146;DHT22;51730;56.950;24.126;2023-03-15T16:23:24;6.00;55.80
65146;DHT22;51730;56.950;24.126;2023-03-15T16:25:52;6.00;55.90
65146;DHT22;51730;56.950;24.126;2023-03-15T16:28:21;5.90;56.60
65146;DHT22;51730;56.950;24.126;2023-03-15T16:30:48;5.70;56.40
65146;DHT22;51730;56.950;24.126;2023-03-15T16:33:16;5.70;57.30
65146;DHT22;51730;56.950;24.126;2023-03-15T16:35:43;5.70;57.80
65146;DHT22;51730;56.950;24.126;2023-03-15T16:38:12;5.60;58.50
65146;DHT22;51730;56.950;24.126;2023-03-15T16:40:40;5.60;59.30
65146;DHT22;51730;56.950;24.126;2023-03-15T16:43:09;5.60;59.60
65146;DHT22;51730;56.950;24.126;2023-03-15T16:45:36;5.50;60.30
65146;DHT22;51730;56.950;24.126;2023-03-15T16:48:03;5.40;61.00
65146;DHT22;51730;56.950;24.126;2023-03-15T16:50:30;5.40;62.00
65146;DHT22;51730;56.950;24.126;2023-03-15T16:52:58;5.30;63.00
65146;DHT22;51730;56.950;24.126;2023-03-15T16:55:26;5.20;63.30
65146;DHT22;51730;56.950;24.126;2023-03-15T16:57:54;5.20;64.10
65146;DHT22;51730;56.950;24.126;2023-03-15T17:00:21;5.20;64.40
65146;DHT22;51730;56.950;24.126;2023-03-15T17:02:49;5.20;65.00
65146;DHT22;51730;56.950;24.126;2023-03-15T17:05:17;5.20;65.30